Terminal Aerodrome Forecast
Issued by NWS

Home | Current Version | Previous Version | Graphics & Text | Print | Product List | Glossary On
Versions: 1 2 3 4 5 6 7 8 9 10 11 12 13 14 15
000
FTUS41 KCLE 222351 AAA
TAFFDY
TAF AMD
KFDY 222351Z 2300/2324 21015G25KT P6SM BKN070
     FM230500 21012KT P6SM BKN018 OVC040
     FM230900 21012KT 5SM -SHRA VCTS BKN015CB OVC025
     FM231600 24015KT P6SM -SHRA VCTS BKN015CB OVC025
     FM232200 29010KT P6SM BKN025 OVC045=

USA.gov is the U.S. government's official web portal to all federal, state and local government web resources and services.